Time;durP1;ratioP1;P1;durP2;ratioP2;P2;SDS_P1;SDS_P2;PMS_P1;PMS_P2;Temp;Humidity;BMP_temperature;BMP_pressure;BME280_temperature;BME280_humidity;BME280_pressure;Samples;Min_cycle;Max_cycle;Signal;HPM_P1;HPM_P2
2023/05/24 00:02:25;;;;;;;7.97;1.67;;;;;;;;;;5116286;28;20510;-82
2023/05/24 00:04:51;;;;;;;9.87;3.17;;;;;;;;;;5113208;28;20506;-84
2023/05/24 00:07:17;;;;;;;14.50;2.60;;;;;;;;;;5138010;22;20473;-83
2023/05/24 00:09:43;;;;;;;6.33;1.20;;;;;;;;;;5095985;28;20419;-84
2023/05/24 00:12:09;;;;;;;14.63;3.10;;;;;;;;;;5077622;28;20793;-82
2023/05/24 00:14:35;;;;;;;7.97;2.50;;;;;;;;;;5095808;28;20407;-83
2023/05/24 00:17:01;;;;;;;11.43;2.77;;;;;;;;;;5095871;28;20916;-82
2023/05/24 00:19:28;;;;;;;12.90;3.10;;;;;;;;;;5095883;28;20497;-84
2023/05/24 00:21:56;;;;;;;10.50;2.87;;;;;;;;;;5095695;28;20511;-83
2023/05/24 00:24:22;;;;;;;7.43;3.13;;;;;;;;;;5077555;28;20464;-83
2023/05/24 00:26:48;;;;;;;8.60;1.80;;;;;;;;;;5095470;28;20450;-82
2023/05/24 00:29:14;;;;;;;12.43;3.10;;;;;;;;;;5077161;28;20467;-83
2023/05/24 00:31:40;;;;;;;8.53;2.50;;;;;;;;;;5095801;28;20409;-85
2023/05/24 00:34:06;;;;;;;12.13;2.57;;;;;;;;;;5095549;28;20413;-83
2023/05/24 00:36:32;;;;;;;17.20;2.20;;;;;;;;;;5095690;28;20407;-84
2023/05/24 00:38:58;;;;;;;10.00;2.60;;;;;;;;;;5095953;28;20400;-85
2023/05/24 00:41:25;;;;;;;12.50;2.43;;;;;;;;;;5095405;28;20423;-84
2023/05/24 00:43:51;;;;;;;8.23;3.07;;;;;;;;;;5094019;28;20446;-85
2023/05/24 00:46:21;;;;;;;9.90;2.37;;;;;;;;;;5094954;28;20398;-83
2023/05/24 00:48:48;;;;;;;11.17;2.53;;;;;;;;;;5095102;28;20421;-85
2023/05/24 00:51:14;;;;;;;12.97;2.83;;;;;;;;;;5094954;28;20469;-84
2023/05/24 00:53:40;;;;;;;12.23;1.93;;;;;;;;;;5095487;28;20473;-83
2023/05/24 00:56:09;;;;;;;10.67;2.67;;;;;;;;;;5095159;28;20405;-84
2023/05/24 00:58:35;;;;;;;14.10;3.33;;;;;;;;;;5095386;28;20415;-85
2023/05/24 01:01:02;;;;;;;15.03;3.03;;;;;;;;;;5095306;28;20422;-84
2023/05/24 01:03:29;;;;;;;13.57;2.33;;;;;;;;;;5077081;28;20487;-84
2023/05/24 01:05:58;;;;;;;17.87;3.13;;;;;;;;;;5095192;28;20763;-81
2023/05/24 01:08:30;;;;;;;8.27;2.13;;;;;;;;;;5094943;28;20463;-82
2023/05/24 01:10:59;;;;;;;7.60;2.07;;;;;;;;;;5094350;28;20900;-84
2023/05/24 01:13:47;;;;;;;16.97;3.10;;;;;;;;;;5095186;28;20412;-82
2023/05/24 01:16:45;;;;;;;9.57;2.83;;;;;;;;;;5094989;28;20503;-82
2023/05/24 01:19:21;;;;;;;14.70;2.80;;;;;;;;;;5079190;28;20433;-82
2023/05/24 01:22:10;;;;;;;10.97;3.13;;;;;;;;;;5094819;28;20460;-81
2023/05/24 01:24:41;;;;;;;9.00;2.53;;;;;;;;;;5077110;28;20926;-82
2023/05/24 01:27:08;;;;;;;7.63;2.00;;;;;;;;;;5094467;28;20465;-81
2023/05/24 01:29:37;;;;;;;7.63;1.60;;;;;;;;;;5094826;28;20501;-81
2023/05/24 01:32:06;;;;;;;9.30;2.50;;;;;;;;;;5094735;28;20931;-82
2023/05/24 01:34:32;;;;;;;11.00;3.37;;;;;;;;;;5076663;28;20420;-84
2023/05/24 01:36:58;;;;;;;9.73;2.73;;;;;;;;;;5094719;28;20412;-83
2023/05/24 01:39:26;;;;;;;8.87;2.30;;;;;;;;;;5094727;28;20410;-81
2023/05/24 01:41:58;;;;;;;15.10;3.83;;;;;;;;;;5075948;28;20479;-82
2023/05/24 01:44:33;;;;;;;9.73;3.03;;;;;;;;;;5094636;28;20409;-81
2023/05/24 01:47:11;;;;;;;10.90;2.13;;;;;;;;;;5094603;28;20419;-80
2023/05/24 01:49:40;;;;;;;7.57;1.50;;;;;;;;;;5094451;28;20409;-81
2023/05/24 01:52:10;;;;;;;8.50;2.57;;;;;;;;;;5094405;28;20499;-81
2023/05/24 01:54:43;;;;;;;11.97;1.77;;;;;;;;;;5076204;28;20419;-81
2023/05/24 01:57:09;;;;;;;10.27;2.30;;;;;;;;;;5075723;28;20503;-81
2023/05/24 01:59:36;;;;;;;10.63;3.03;;;;;;;;;;5094182;28;20413;-81
2023/05/24 02:02:02;;;;;;;12.53;2.23;;;;;;;;;;5094071;28;20460;-81
2023/05/24 02:04:28;;;;;;;14.40;2.67;;;;;;;;;;5094211;28;20419;-82
2023/05/24 02:06:54;;;;;;;6.00;2.20;;;;;;;;;;5093981;28;20988;-81
2023/05/24 02:09:20;;;;;;;8.90;2.40;;;;;;;;;;5094059;28;20410;-82
2023/05/24 02:11:46;;;;;;;9.03;2.60;;;;;;;;;;5093740;28;20497;-81
2023/05/24 02:14:12;;;;;;;7.43;2.67;;;;;;;;;;5094036;28;20411;-82
2023/05/24 02:16:41;;;;;;;9.80;1.90;;;;;;;;;;5093969;28;20401;-82
2023/05/24 02:19:07;;;;;;;10.33;2.97;;;;;;;;;;5093900;28;20466;-83
2023/05/24 02:21:33;;;;;;;9.20;2.13;;;;;;;;;;5075487;28;20972;-80
2023/05/24 02:23:59;;;;;;;14.87;2.77;;;;;;;;;;5093065;28;20417;-82
2023/05/24 02:26:25;;;;;;;9.10;2.63;;;;;;;;;;5093368;28;20500;-80
2023/05/24 02:28:51;;;;;;;8.83;2.47;;;;;;;;;;5093735;28;20955;-79
2023/05/24 02:31:17;;;;;;;8.50;2.37;;;;;;;;;;5093664;28;20446;-80
2023/05/24 02:33:43;;;;;;;7.53;1.83;;;;;;;;;;5093569;28;20417;-80
2023/05/24 02:36:09;;;;;;;7.83;1.60;;;;;;;;;;5093511;28;20412;-79
2023/05/24 02:38:36;;;;;;;12.07;2.47;;;;;;;;;;5093600;28;20841;-83
2023/05/24 02:41:01;;;;;;;8.67;2.23;;;;;;;;;;5093161;28;20439;-82
2023/05/24 02:43:27;;;;;;;12.03;3.13;;;;;;;;;;5075258;28;20470;-84
2023/05/24 02:45:54;;;;;;;12.13;2.80;;;;;;;;;;5093482;28;20751;-80
2023/05/24 02:48:20;;;;;;;10.67;2.20;;;;;;;;;;5093506;28;20405;-81
2023/05/24 02:50:45;;;;;;;14.70;2.90;;;;;;;;;;5093381;28;20407;-83
2023/05/24 02:53:11;;;;;;;18.83;4.30;;;;;;;;;;5093282;28;20413;-83
2023/05/24 02:55:38;;;;;;;8.63;1.83;;;;;;;;;;5093062;28;20629;-84
2023/05/24 02:58:03;;;;;;;12.10;2.67;;;;;;;;;;5075208;28;20542;-81
2023/05/24 03:00:29;;;;;;;5.40;1.00;;;;;;;;;;5093251;28;20448;-80
2023/05/24 03:02:59;;;;;;;9.13;2.43;;;;;;;;;;5093128;28;20472;-80
2023/05/24 03:05:25;;;;;;;9.87;2.00;;;;;;;;;;5093163;28;20893;-80
2023/05/24 03:07:51;;;;;;;8.63;2.17;;;;;;;;;;5093005;28;20557;-83
2023/05/24 03:10:17;;;;;;;15.17;3.23;;;;;;;;;;5092854;28;20440;-80
2023/05/24 03:12:43;;;;;;;20.07;3.77;;;;;;;;;;5093092;28;20501;-80
2023/05/24 03:15:12;;;;;;;17.70;3.03;;;;;;;;;;5093073;28;20406;-79
2023/05/24 03:17:38;;;;;;;10.33;2.10;;;;;;;;;;5093079;28;20422;-80
2023/05/24 03:20:04;;;;;;;14.47;3.93;;;;;;;;;;5093079;28;20434;-82
2023/05/24 03:22:30;;;;;;;7.00;2.40;;;;;;;;;;5093047;28;20405;-81
2023/05/24 03:24:57;;;;;;;9.30;2.40;;;;;;;;;;5092599;28;20925;-81
2023/05/24 03:27:22;;;;;;;12.03;2.70;;;;;;;;;;5093021;28;20413;-81
2023/05/24 03:29:48;;;;;;;7.77;2.90;;;;;;;;;;5092953;28;20409;-80
2023/05/24 03:32:14;;;;;;;15.20;2.97;;;;;;;;;;5092980;28;20407;-81
2023/05/24 03:34:40;;;;;;;6.70;1.70;;;;;;;;;;5076333;28;20173;-81
2023/05/24 03:37:06;;;;;;;12.63;2.83;;;;;;;;;;5097019;28;20786;-80
2023/05/24 03:39:32;;;;;;;6.97;2.63;;;;;;;;;;5096800;28;20938;-82
2023/05/24 03:41:58;;;;;;;11.23;2.67;;;;;;;;;;5096881;28;20465;-82
2023/05/24 03:44:24;;;;;;;5.17;1.57;;;;;;;;;;5096997;28;20174;-83
2023/05/24 03:46:50;;;;;;;8.23;2.13;;;;;;;;;;5096876;28;20402;-83
2023/05/24 03:49:16;;;;;;;4.00;2.33;;;;;;;;;;5096779;28;20520;-83
2023/05/24 03:51:42;;;;;;;9.27;2.70;;;;;;;;;;5096807;28;20412;-84
2023/05/24 03:54:07;;;;;;;15.40;3.57;;;;;;;;;;5078544;28;20420;-83
2023/05/24 03:56:33;;;;;;;13.63;2.60;;;;;;;;;;5096338;28;20780;-82
2023/05/24 03:59:02;;;;;;;9.43;3.37;;;;;;;;;;5096658;28;20183;-83
2023/05/24 04:01:30;;;;;;;12.10;3.57;;;;;;;;;;5096529;28;20428;-82
2023/05/24 04:03:56;;;;;;;6.63;2.50;;;;;;;;;;5096617;28;20947;-82
2023/05/24 04:06:27;;;;;;;11.53;2.70;;;;;;;;;;5078137;28;20912;-81
2023/05/24 04:08:55;;;;;;;9.27;3.13;;;;;;;;;;5078380;28;20404;-82
2023/05/24 04:11:27;;;;;;;7.60;2.13;;;;;;;;;;5077843;28;20793;-83
2023/05/24 04:13:54;;;;;;;12.13;2.63;;;;;;;;;;5096322;28;20412;-83
2023/05/24 04:16:22;;;;;;;5.97;3.00;;;;;;;;;;5096282;28;20415;-82
2023/05/24 04:18:48;;;;;;;8.80;2.83;;;;;;;;;;5096290;28;20404;-82
2023/05/24 04:21:14;;;;;;;17.03;3.50;;;;;;;;;;5096261;28;20416;-83
2023/05/24 04:23:40;;;;;;;9.37;2.77;;;;;;;;;;5096067;28;20480;-83
2023/05/24 04:26:08;;;;;;;9.67;2.50;;;;;;;;;;5105774;28;20887;-83
2023/05/24 04:28:34;;;;;;;5.67;1.50;;;;;;;;;;5116541;28;20208;-84
2023/05/24 04:31:00;;;;;;;6.97;2.00;;;;;;;;;;5098108;28;20897;-83
2023/05/24 04:33:27;;;;;;;13.03;2.67;;;;;;;;;;5116311;28;20453;-85
2023/05/24 04:35:53;;;;;;;8.27;2.20;;;;;;;;;;5116310;28;20514;-84
2023/05/24 04:38:19;;;;;;;11.40;2.37;;;;;;;;;;5116226;28;20901;-83
2023/05/24 04:40:45;;;;;;;6.77;2.67;;;;;;;;;;5115832;28;20497;-82
2023/05/24 04:43:10;;;;;;;13.63;2.20;;;;;;;;;;5115937;28;20471;-84
2023/05/24 04:45:37;;;;;;;10.30;2.33;;;;;;;;;;5115404;28;20416;-85
2023/05/24 04:48:03;;;;;;;8.93;2.90;;;;;;;;;;5097615;28;20766;-84
2023/05/24 04:50:29;;;;;;;12.40;3.20;;;;;;;;;;5116019;28;20407;-84
2023/05/24 04:52:56;;;;;;;9.73;3.93;;;;;;;;;;5097770;28;20429;-85
2023/05/24 04:55:22;;;;;;;9.27;4.70;;;;;;;;;;5115628;28;20406;-85
2023/05/24 04:57:48;;;;;;;16.23;3.10;;;;;;;;;;5115947;28;20424;-83
2023/05/24 05:00:14;;;;;;;10.90;3.07;;;;;;;;;;5115862;28;20405;-83
2023/05/24 05:02:40;;;;;;;12.20;2.67;;;;;;;;;;5115818;28;20495;-81
2023/05/24 05:05:06;;;;;;;6.03;2.43;;;;;;;;;;5097304;28;20415;-84
2023/05/24 05:07:32;;;;;;;9.35;3.40;;;;;;;;;;5114708;28;20467;-83
2023/05/24 05:09:58;;;;;;;8.57;2.57;;;;;;;;;;5115263;28;20201;-83
2023/05/24 05:12:24;;;;;;;11.97;2.07;;;;;;;;;;5115633;28;20703;-81
2023/05/24 05:14:50;;;;;;;10.43;3.37;;;;;;;;;;5115562;28;20168;-81
2023/05/24 05:17:15;;;;;;;14.50;3.17;;;;;;;;;;5115570;28;20411;-84
2023/05/24 05:19:41;;;;;;;8.60;2.80;;;;;;;;;;5115477;28;20952;-81
2023/05/24 05:22:07;;;;;;;8.60;3.90;;;;;;;;;;5115172;28;20212;-82
2023/05/24 05:24:33;;;;;;;12.03;3.00;;;;;;;;;;5115042;28;20176;-83
2023/05/24 05:26:59;;;;;;;7.93;2.93;;;;;;;;;;5114036;28;20393;-82
2023/05/24 05:29:25;;;;;;;14.70;3.03;;;;;;;;;;5114157;28;20412;-83
2023/05/24 05:31:51;;;;;;;9.03;2.60;;;;;;;;;;5094880;28;20420;-83
2023/05/24 05:34:18;;;;;;;7.30;2.67;;;;;;;;;;5107994;28;20421;-81
2023/05/24 05:36:44;;;;;;;13.33;2.70;;;;;;;;;;5103292;28;20410;-81
2023/05/24 05:39:10;;;;;;;13.63;2.60;;;;;;;;;;5104983;28;20416;-80
2023/05/24 05:41:36;;;;;;;8.60;2.90;;;;;;;;;;5101686;28;20428;-83
2023/05/24 05:44:02;;;;;;;8.33;3.27;;;;;;;;;;5103351;28;20906;-81
2023/05/24 05:46:28;;;;;;;14.90;2.90;;;;;;;;;;5103370;28;20406;-79
2023/05/24 05:48:54;;;;;;;17.60;3.97;;;;;;;;;;5105926;28;20422;-80
2023/05/24 05:51:20;;;;;;;10.87;3.13;;;;;;;;;;5103324;28;20259;-79
2023/05/24 05:53:46;;;;;;;8.07;2.50;;;;;;;;;;5105027;28;20941;-80
2023/05/24 05:56:15;;;;;;;8.70;3.70;;;;;;;;;;5103324;28;21092;-80
2023/05/24 05:58:41;;;;;;;6.90;2.50;;;;;;;;;;5102881;28;20178;-80
2023/05/24 06:01:07;;;;;;;15.40;4.10;;;;;;;;;;5105018;28;20512;-79
2023/05/24 06:03:33;;;;;;;8.67;2.90;;;;;;;;;;5103547;28;20989;-80
2023/05/24 06:05:59;;;;;;;7.43;4.33;;;;;;;;;;5103191;28;20496;-81
2023/05/24 06:08:26;;;;;;;9.97;3.13;;;;;;;;;;5104704;28;20253;-80
2023/05/24 06:10:52;;;;;;;9.17;2.73;;;;;;;;;;5103052;28;20402;-81
2023/05/24 06:13:17;;;;;;;10.87;3.30;;;;;;;;;;5103300;28;20418;-81
2023/05/24 06:15:44;;;;;;;8.13;2.80;;;;;;;;;;5104524;28;20412;-80
2023/05/24 06:18:10;;;;;;;9.87;3.27;;;;;;;;;;5102753;28;20181;-82
2023/05/24 06:20:36;;;;;;;12.33;4.07;;;;;;;;;;5103470;28;20479;-81
2023/05/24 06:23:02;;;;;;;5.73;2.73;;;;;;;;;;5104470;28;20469;-80
2023/05/24 06:25:29;;;;;;;5.77;3.17;;;;;;;;;;5081451;28;20413;-80
2023/05/24 06:27:55;;;;;;;11.33;4.33;;;;;;;;;;5103338;28;20414;-82
2023/05/24 06:30:21;;;;;;;12.80;3.43;;;;;;;;;;5104295;28;20410;-80
2023/05/24 06:32:47;;;;;;;14.37;3.57;;;;;;;;;;5102188;28;20479;-81
2023/05/24 06:35:13;;;;;;;7.97;4.00;;;;;;;;;;5085507;28;20406;-81
2023/05/24 06:37:39;;;;;;;10.23;3.70;;;;;;;;;;5104336;28;20921;-82
2023/05/24 06:40:08;;;;;;;9.03;3.40;;;;;;;;;;5103835;28;20190;-81
2023/05/24 06:42:34;;;;;;;8.93;2.40;;;;;;;;;;5102855;28;21038;-81
2023/05/24 06:45:02;;;;;;;11.17;4.30;;;;;;;;;;5113689;28;20465;-80
2023/05/24 06:47:28;;;;;;;17.97;6.73;;;;;;;;;;5113521;28;20453;-80
2023/05/24 06:49:54;;;;;;;12.10;4.60;;;;;;;;;;5095585;28;20410;-80
2023/05/24 06:52:20;;;;;;;7.40;3.40;;;;;;;;;;5113785;28;20456;-80
2023/05/24 06:54:46;;;;;;;13.43;5.47;;;;;;;;;;5113578;28;20409;-83
2023/05/24 06:57:12;;;;;;;11.07;3.70;;;;;;;;;;5095504;28;20938;-81
2023/05/24 06:59:38;;;;;;;10.50;4.00;;;;;;;;;;5113597;28;20902;-81
2023/05/24 07:02:04;;;;;;;14.07;3.20;;;;;;;;;;5113347;28;20461;-80
2023/05/24 07:04:31;;;;;;;10.20;3.70;;;;;;;;;;5113648;28;20416;-79
2023/05/24 07:06:57;;;;;;;9.47;3.80;;;;;;;;;;5113438;28;20520;-79
2023/05/24 07:09:23;;;;;;;10.37;4.90;;;;;;;;;;5112776;28;20418;-80
2023/05/24 07:11:49;;;;;;;6.43;3.10;;;;;;;;;;5095307;28;20420;-80
2023/05/24 07:14:15;;;;;;;14.27;3.50;;;;;;;;;;5113467;28;20423;-79
2023/05/24 07:16:41;;;;;;;14.13;3.63;;;;;;;;;;5113390;28;20418;-80
2023/05/24 07:19:07;;;;;;;9.20;3.63;;;;;;;;;;5113400;28;20421;-79
2023/05/24 07:21:33;;;;;;;12.83;4.17;;;;;;;;;;5095157;28;20414;-79
2023/05/24 07:23:59;;;;;;;21.57;5.27;;;;;;;;;;5112999;28;20411;-80
2023/05/24 07:26:25;;;;;;;12.67;4.30;;;;;;;;;;5113321;28;20499;-79
2023/05/24 07:28:51;;;;;;;12.17;4.57;;;;;;;;;;5113244;28;20406;-79
2023/05/24 07:31:17;;;;;;;10.90;3.40;;;;;;;;;;5113326;28;20476;-81
2023/05/24 07:33:43;;;;;;;9.10;3.87;;;;;;;;;;5084963;28;20423;-81
2023/05/24 07:36:09;;;;;;;9.57;2.90;;;;;;;;;;5091929;28;20462;-82
2023/05/24 07:38:37;;;;;;;14.53;4.43;;;;;;;;;;5090883;28;20166;-81
2023/05/24 07:41:06;;;;;;;8.93;3.03;;;;;;;;;;5073325;28;20876;-81
2023/05/24 07:43:32;;;;;;;10.23;3.10;;;;;;;;;;5093622;28;20840;-80
2023/05/24 07:45:58;;;;;;;8.10;2.10;;;;;;;;;;5100837;28;20399;-82
2023/05/24 07:48:24;;;;;;;7.03;3.23;;;;;;;;;;5092758;28;20916;-82
2023/05/24 07:50:53;;;;;;;11.10;2.17;;;;;;;;;;5100942;28;20462;-82
2023/05/24 07:53:19;;;;;;;9.23;2.50;;;;;;;;;;5100486;28;20850;-81
2023/05/24 07:55:46;;;;;;;7.20;2.40;;;;;;;;;;5102287;28;20772;-81
2023/05/24 07:58:12;;;;;;;8.13;2.83;;;;;;;;;;5101394;28;20435;-80
2023/05/24 08:00:40;;;;;;;11.13;2.67;;;;;;;;;;5101688;28;20414;-81
2023/05/24 08:03:06;;;;;;;11.03;3.50;;;;;;;;;;5100900;28;20472;-81
2023/05/24 08:05:32;;;;;;;6.80;1.80;;;;;;;;;;5093169;28;20791;-81
2023/05/24 08:07:58;;;;;;;8.60;2.63;;;;;;;;;;5102510;28;21020;-81
2023/05/24 08:10:24;;;;;;;11.13;3.60;;;;;;;;;;5100420;28;20403;-81
2023/05/24 08:12:54;;;;;;;10.17;4.10;;;;;;;;;;5102050;28;20467;-81
2023/05/24 08:15:20;;;;;;;10.47;3.67;;;;;;;;;;5101016;28;20414;-82
2023/05/24 08:17:47;;;;;;;9.43;2.77;;;;;;;;;;5100432;28;20421;-82
2023/05/24 08:20:15;;;;;;;5.93;1.53;;;;;;;;;;5101903;28;20468;-81
2023/05/24 08:22:41;;;;;;;8.03;2.63;;;;;;;;;;5103331;28;20562;-81
2023/05/24 08:25:08;;;;;;;9.63;3.00;;;;;;;;;;5104201;28;20936;-82
2023/05/24 08:27:34;;;;;;;8.87;2.57;;;;;;;;;;5105531;28;20425;-81
2023/05/24 08:30:00;;;;;;;8.47;2.97;;;;;;;;;;5103670;28;20901;-83
2023/05/24 08:32:26;;;;;;;10.50;2.97;;;;;;;;;;5106331;28;20417;-81
2023/05/24 08:34:52;;;;;;;8.70;2.43;;;;;;;;;;5115124;28;20419;-81
2023/05/24 08:37:19;;;;;;;13.20;3.03;;;;;;;;;;5114509;28;20777;-81
2023/05/24 08:39:45;;;;;;;10.07;2.60;;;;;;;;;;5115055;28;20407;-81
2023/05/24 08:42:11;;;;;;;23.70;4.20;;;;;;;;;;5115103;28;20552;-80
2023/05/24 08:44:41;;;;;;;11.97;2.90;;;;;;;;;;5115082;28;20542;-81
2023/05/24 08:47:07;;;;;;;13.47;3.17;;;;;;;;;;5114689;28;20489;-81
2023/05/24 08:49:36;;;;;;;8.80;2.30;;;;;;;;;;5114765;28;20401;-81
2023/05/24 08:52:02;;;;;;;13.17;4.50;;;;;;;;;;5115110;28;20418;-79
2023/05/24 08:54:28;;;;;;;9.40;2.47;;;;;;;;;;5114701;28;20749;-81
2023/05/24 08:56:55;;;;;;;9.10;2.93;;;;;;;;;;5114828;28;20492;-79
2023/05/24 08:59:22;;;;;;;11.20;3.50;;;;;;;;;;5114969;28;20399;-81
2023/05/24 09:01:54;;;;;;;14.03;2.50;;;;;;;;;;5114807;28;20430;-81
2023/05/24 09:04:22;;;;;;;10.20;3.10;;;;;;;;;;5114809;28;20421;-82
2023/05/24 09:06:48;;;;;;;15.90;4.20;;;;;;;;;;5114094;28;20447;-79
2023/05/24 09:09:17;;;;;;;8.73;2.40;;;;;;;;;;5093754;28;20540;-80
2023/05/24 09:11:44;;;;;;;13.10;3.80;;;;;;;;;;5094331;28;20433;-79
2023/05/24 09:14:10;;;;;;;9.63;2.27;;;;;;;;;;5093945;28;20440;-79
2023/05/24 09:16:36;;;;;;;8.87;2.47;;;;;;;;;;5094138;28;20409;-79
2023/05/24 09:19:05;;;;;;;8.00;3.53;;;;;;;;;;5094082;28;20494;-79
2023/05/24 09:21:34;;;;;;;9.37;2.83;;;;;;;;;;5093921;28;20182;-80
2023/05/24 09:24:00;;;;;;;9.23;2.77;;;;;;;;;;5100490;28;20837;-80
2023/05/24 09:26:29;;;;;;;11.63;3.37;;;;;;;;;;5105101;28;20417;-80
2023/05/24 09:28:56;;;;;;;9.43;2.30;;;;;;;;;;5108423;28;20495;-80
2023/05/24 09:31:31;;;;;;;8.40;2.27;;;;;;;;;;5095907;28;20422;-80
2023/05/24 09:33:57;;;;;;;8.00;3.03;;;;;;;;;;5113683;28;20971;-79
2023/05/24 09:36:23;;;;;;;9.93;2.30;;;;;;;;;;5095781;28;20507;-80
2023/05/24 09:38:50;;;;;;;5.93;1.53;;;;;;;;;;5113394;28;20171;-80
2023/05/24 09:41:16;;;;;;;6.30;2.10;;;;;;;;;;5113810;28;20190;-80
2023/05/24 09:43:49;;;;;;;8.70;1.97;;;;;;;;;;5113815;28;20511;-79
2023/05/24 09:46:21;;;;;;;14.83;2.90;;;;;;;;;;5113444;28;20891;-80
2023/05/24 09:48:57;;;;;;;7.37;4.17;;;;;;;;;;5113548;28;20416;-79
2023/05/24 09:51:23;;;;;;;9.67;2.27;;;;;;;;;;5113667;28;20408;-80
2023/05/24 09:53:51;;;;;;;10.03;1.80;;;;;;;;;;5094885;28;20479;-79
2023/05/24 09:56:17;;;;;;;7.67;3.03;;;;;;;;;;5095559;28;20807;-79
2023/05/24 09:58:44;;;;;;;8.33;2.83;;;;;;;;;;5112875;28;20409;-80
2023/05/24 10:01:12;;;;;;;11.17;3.10;;;;;;;;;;5113494;28;20575;-80
2023/05/24 10:03:38;;;;;;;6.30;1.50;;;;;;;;;;5095027;28;20685;-79
2023/05/24 10:06:07;;;;;;;8.10;1.97;;;;;;;;;;5113140;28;20967;-79
2023/05/24 10:08:35;;;;;;;7.93;2.00;;;;;;;;;;5112638;28;20454;-79
2023/05/24 10:11:05;;;;;;;7.80;2.23;;;;;;;;;;5112322;28;20412;-80
2023/05/24 10:13:34;;;;;;;8.43;1.93;;;;;;;;;;5113070;28;20396;-79
2023/05/24 10:16:00;;;;;;;7.50;1.90;;;;;;;;;;5112850;28;20416;-80
2023/05/24 10:18:26;;;;;;;11.50;2.50;;;;;;;;;;5108173;28;20772;-81
2023/05/24 10:20:55;;;;;;;5.03;1.73;;;;;;;;;;5097511;28;20938;-81
2023/05/24 10:23:22;;;;;;;7.90;2.30;;;;;;;;;;5084854;28;20558;-81
2023/05/24 10:25:55;;;;;;;5.77;1.20;;;;;;;;;;5100752;28;20497;-80
2023/05/24 10:28:22;;;;;;;9.40;2.70;;;;;;;;;;5095120;28;20415;-80
2023/05/24 10:31:01;;;;;;;9.20;2.63;;;;;;;;;;5092486;28;20423;-81
2023/05/24 10:33:27;;;;;;;8.40;3.40;;;;;;;;;;5092272;28;20405;-82
2023/05/24 10:35:54;;;;;;;8.10;2.37;;;;;;;;;;5073968;28;20814;-81
2023/05/24 10:38:22;;;;;;;6.57;2.00;;;;;;;;;;5092170;28;20477;-79
2023/05/24 10:40:48;;;;;;;5.43;1.57;;;;;;;;;;5092085;28;20786;-78
2023/05/24 10:43:14;;;;;;;3.80;1.47;;;;;;;;;;5093236;28;20976;-78
2023/05/24 10:45:40;;;;;;;6.47;2.10;;;;;;;;;;5092945;28;20410;-79
2023/05/24 10:48:10;;;;;;;6.80;2.50;;;;;;;;;;5093395;28;20470;-81
2023/05/24 10:50:36;;;;;;;6.83;2.80;;;;;;;;;;5092378;28;20472;-78
2023/05/24 10:53:22;;;;;;;7.30;2.43;;;;;;;;;;5093316;28;20456;-81
2023/05/24 10:55:58;;;;;;;5.90;2.13;;;;;;;;;;5093299;28;20402;-77
2023/05/24 10:58:34;;;;;;;8.83;2.37;;;;;;;;;;5093316;28;20416;-81
2023/05/24 11:01:00;;;;;;;4.20;1.63;;;;;;;;;;5093271;28;20536;-78
2023/05/24 11:03:32;;;;;;;8.93;2.40;;;;;;;;;;5093197;28;20532;-80
2023/05/24 11:05:58;;;;;;;5.27;1.60;;;;;;;;;;5093320;28;20519;-79
2023/05/24 11:08:26;;;;;;;8.57;1.90;;;;;;;;;;5092147;28;20491;-78
2023/05/24 11:11:03;;;;;;;6.60;2.00;;;;;;;;;;5093064;28;20401;-81
2023/05/24 11:13:29;;;;;;;9.17;2.03;;;;;;;;;;5093110;28;20438;-79
2023/05/24 11:15:55;;;;;;;4.70;1.40;;;;;;;;;;5093086;28;20486;-78
2023/05/24 11:18:22;;;;;;;6.57;1.97;;;;;;;;;;5092789;28;20960;-78
2023/05/24 11:20:49;;;;;;;5.50;1.83;;;;;;;;;;5092995;28;20403;-79
2023/05/24 11:23:16;;;;;;;4.40;1.80;;;;;;;;;;5092367;28;20910;-78
2023/05/24 11:25:42;;;;;;;4.03;1.77;;;;;;;;;;5093030;28;20408;-78
2023/05/24 11:28:11;;;;;;;3.87;2.13;;;;;;;;;;5093046;28;20423;-77
2023/05/24 11:30:39;;;;;;;5.10;2.33;;;;;;;;;;5092943;28;20408;-78
2023/05/24 11:33:13;;;;;;;5.70;2.37;;;;;;;;;;5092934;28;20424;-78
2023/05/24 11:35:39;;;;;;;8.00;1.87;;;;;;;;;;5092770;28;20934;-79
2023/05/24 11:38:10;;;;;;;5.67;2.20;;;;;;;;;;5092375;28;20445;-78
2023/05/24 11:40:37;;;;;;;6.30;1.70;;;;;;;;;;5094955;28;20314;-81
2023/05/24 11:43:05;;;;;;;4.80;1.70;;;;;;;;;;5095333;28;20494;-81
2023/05/24 11:45:31;;;;;;;6.90;1.77;;;;;;;;;;5093033;28;20417;-80
2023/05/24 11:47:57;;;;;;;6.00;2.33;;;;;;;;;;5093009;28;20512;-80
2023/05/24 11:50:23;;;;;;;6.20;1.70;;;;;;;;;;5097895;28;20450;-81
2023/05/24 11:52:52;;;;;;;4.20;1.20;;;;;;;;;;5092884;28;20197;-82
2023/05/24 11:55:24;;;;;;;5.80;1.50;;;;;;;;;;5075383;28;20983;-80
2023/05/24 11:57:54;;;;;;;4.23;2.13;;;;;;;;;;5095666;28;20950;-80
2023/05/24 12:00:26;;;;;;;6.47;1.77;;;;;;;;;;5096748;28;20417;-80
2023/05/24 12:02:55;;;;;;;7.03;1.43;;;;;;;;;;5096497;28;20511;-81
2023/05/24 12:05:22;;;;;;;5.83;2.67;;;;;;;;;;5096671;28;20418;-80
2023/05/24 12:07:48;;;;;;;6.90;1.87;;;;;;;;;;5096527;28;20453;-81
2023/05/24 12:10:17;;;;;;;7.77;1.63;;;;;;;;;;5078313;28;20938;-81
2023/05/24 12:12:43;;;;;;;5.40;2.27;;;;;;;;;;5096606;28;20442;-81
2023/05/24 12:15:10;;;;;;;5.57;2.20;;;;;;;;;;5096565;28;20413;-81
2023/05/24 12:17:36;;;;;;;4.60;1.33;;;;;;;;;;5078429;28;20508;-81
2023/05/24 12:20:04;;;;;;;7.00;2.10;;;;;;;;;;5078284;28;20413;-82
2023/05/24 12:22:30;;;;;;;5.30;2.30;;;;;;;;;;5096331;28;20463;-80
2023/05/24 12:24:57;;;;;;;7.40;2.27;;;;;;;;;;5095816;28;20426;-81
2023/05/24 12:27:30;;;;;;;8.70;2.30;;;;;;;;;;5077942;28;20420;-82
2023/05/24 12:29:56;;;;;;;6.73;1.77;;;;;;;;;;5096195;28;20414;-81
2023/05/24 12:32:22;;;;;;;6.97;2.27;;;;;;;;;;5096082;28;20504;-81
2023/05/24 12:34:49;;;;;;;6.30;1.53;;;;;;;;;;5096084;28;20916;-81
2023/05/24 12:37:17;;;;;;;5.13;2.00;;;;;;;;;;5096107;28;20888;-80
2023/05/24 12:39:43;;;;;;;4.70;2.57;;;;;;;;;;5095547;28;20411;-80
2023/05/24 12:42:11;;;;;;;5.37;1.73;;;;;;;;;;5095891;28;20476;-81
2023/05/24 12:44:37;;;;;;;4.40;2.30;;;;;;;;;;5095731;28;20420;-81
2023/05/24 12:47:05;;;;;;;7.23;1.00;;;;;;;;;;5095915;28;20411;-79
2023/05/24 12:49:31;;;;;;;9.30;2.87;;;;;;;;;;5095769;28;20521;-79
2023/05/24 12:51:57;;;;;;;5.33;1.97;;;;;;;;;;5097989;28;20514;-80
2023/05/24 12:54:31;;;;;;;4.83;1.80;;;;;;;;;;5105879;28;20414;-81
2023/05/24 12:56:58;;;;;;;8.40;2.73;;;;;;;;;;5105582;28;20637;-81
2023/05/24 12:59:27;;;;;;;5.50;2.23;;;;;;;;;;5099930;28;20422;-79
2023/05/24 13:01:52;;;;;;;4.13;2.60;;;;;;;;;;5103545;28;20419;-81
2023/05/24 13:04:19;;;;;;;4.97;2.17;;;;;;;;;;5104656;28;20435;-80
2023/05/24 13:06:46;;;;;;;6.13;1.30;;;;;;;;;;5100328;28;20450;-81
2023/05/24 13:09:13;;;;;;;3.03;1.43;;;;;;;;;;5086024;28;20466;-81
2023/05/24 13:11:39;;;;;;;8.90;2.60;;;;;;;;;;5087376;28;20413;-78
2023/05/24 13:14:05;;;;;;;5.40;2.63;;;;;;;;;;5103114;28;20420;-80
2023/05/24 13:16:31;;;;;;;5.97;2.00;;;;;;;;;;5104776;28;20408;-81
2023/05/24 13:18:57;;;;;;;8.23;2.40;;;;;;;;;;5105308;28;20775;-81
2023/05/24 13:21:23;;;;;;;4.00;2.00;;;;;;;;;;5103359;28;20405;-79
2023/05/24 13:23:49;;;;;;;5.80;2.33;;;;;;;;;;5104495;28;20481;-80
2023/05/24 13:26:15;;;;;;;6.90;3.10;;;;;;;;;;5104833;28;20182;-80
2023/05/24 13:28:41;;;;;;;5.67;2.40;;;;;;;;;;5102605;28;20265;-81
2023/05/24 13:31:08;;;;;;;6.27;2.63;;;;;;;;;;5104890;28;20435;-78
2023/05/24 13:33:34;;;;;;;4.20;2.37;;;;;;;;;;5103934;28;20447;-79
2023/05/24 13:36:06;;;;;;;5.83;1.97;;;;;;;;;;5102902;28;20887;-78
2023/05/24 13:38:31;;;;;;;5.20;2.47;;;;;;;;;;5103481;28;20416;-79
2023/05/24 13:40:58;;;;;;;7.00;2.13;;;;;;;;;;5104262;28;20413;-88
2023/05/24 13:43:24;;;;;;;7.10;3.17;;;;;;;;;;5104515;28;20214;-78
2023/05/24 13:45:50;;;;;;;5.83;2.70;;;;;;;;;;5085434;28;20826;-79
2023/05/24 13:48:16;;;;;;;7.33;2.87;;;;;;;;;;5103232;28;20422;-79
2023/05/24 13:50:43;;;;;;;5.00;2.20;;;;;;;;;;5104836;28;20787;-79
2023/05/24 13:53:09;;;;;;;4.00;2.20;;;;;;;;;;5102886;28;20184;-79
2023/05/24 13:55:37;;;;;;;10.53;2.63;;;;;;;;;;5103303;28;20798;-79
2023/05/24 13:58:06;;;;;;;6.20;2.40;;;;;;;;;;5104845;28;20424;-79
2023/05/24 14:00:34;;;;;;;7.40;2.43;;;;;;;;;;5103681;28;20398;-80
2023/05/24 14:03:00;;;;;;;8.13;3.00;;;;;;;;;;5102067;28;20473;-79
2023/05/24 14:05:27;;;;;;;9.33;2.73;;;;;;;;;;5106018;28;20445;-79
2023/05/24 14:07:54;;;;;;;5.70;2.20;;;;;;;;;;5093766;28;20227;-79
2023/05/24 14:10:20;;;;;;;7.83;3.37;;;;;;;;;;5093990;28;20518;-79
2023/05/24 14:12:46;;;;;;;7.10;2.93;;;;;;;;;;5093760;28;20425;-79
2023/05/24 14:15:12;;;;;;;8.67;2.27;;;;;;;;;;5094030;28;20425;-78
2023/05/24 14:17:40;;;;;;;6.50;3.43;;;;;;;;;;5092499;28;20171;-79
2023/05/24 14:20:07;;;;;;;3.90;1.93;;;;;;;;;;5092463;28;20413;-80
2023/05/24 14:22:32;;;;;;;6.50;3.33;;;;;;;;;;5093582;28;20859;-79
2023/05/24 14:24:58;;;;;;;9.93;3.00;;;;;;;;;;5093092;28;20421;-80
2023/05/24 14:27:24;;;;;;;7.23;3.00;;;;;;;;;;5093522;28;20408;-80
2023/05/24 14:29:50;;;;;;;3.93;2.27;;;;;;;;;;5093472;28;20234;-80
2023/05/24 14:32:16;;;;;;;6.73;2.50;;;;;;;;;;5093314;28;20896;-79
2023/05/24 14:34:42;;;;;;;3.50;1.60;;;;;;;;;;5074903;28;20218;-79
2023/05/24 14:37:08;;;;;;;4.30;2.10;;;;;;;;;;5093159;28;20457;-80
2023/05/24 14:39:34;;;;;;;8.37;2.40;;;;;;;;;;5088378;28;20427;-80